Time,TemperatureF,DewpointF,PressureIn,WindDirection,WindDirectionDegrees,WindSpeedMPH,WindSpeedGustMPH,Humidity,HourlyPrecipIn,Conditions,Clouds,dailyrainin,SoftwareType,DateUTC
2013-04-24 00:00:00,42.4,38.8,30.09,WNW,286,1.0,2.0,87,0.00,,,0.00,Wunderground v.1.15,2013-04-24 04:00:00,
2013-04-24 00:01:00,42.4,38.8,30.10,WNW,295,1.0,2.0,87,0.00,,,0.00,Wunderground v.1.15,2013-04-24 04:01:00,
2013-04-24 00:02:00,42.4,38.8,30.10,NNW,348,1.0,2.0,87,0.00,,,0.00,Wunderground v.1.15,2013-04-24 04:02:00,
2013-04-24 00:04:00,42.4,38.8,30.10,NW,311,1.0,2.0,87,0.00,,,0.00,Wunderground v.1.15,2013-04-24 04:04:00,
2013-04-24 00:07:00,42.4,38.8,30.09,WNW,302,1.0,3.0,87,0.00,,,0.00,Wunderground v.1.15,2013-04-24 04:07:00,
2013-04-24 00:12:00,42.3,38.7,30.09,ENE,63,1.0,2.0,87,0.00,,,0.00,Wunderground v.1.15,2013-04-24 04:12:00,
2013-04-24 00:17:00,42.3,38.7,30.09,West,271,1.0,2.0,87,0.00,,,0.00,Wunderground v.1.15,2013-04-24 04:17:00,
2013-04-24 00:22:00,42.3,39.0,30.10,NNE,33,1.0,4.0,88,0.00,,,0.00,Wunderground v.1.15,2013-04-24 04:22:00,
2013-04-24 00:27:00,42.3,39.0,30.09,NNE,21,1.0,4.0,88,0.00,,,0.00,Wunderground v.1.15,2013-04-24 04:27:00,
2013-04-24 00:33:00,42.2,38.9,30.09,NNW,336,1.0,1.0,88,0.00,,,0.00,Wunderground v.1.15,2013-04-24 04:33:00,
2013-04-24 00:38:00,42.1,38.8,30.09,NNE,24,1.0,2.0,88,0.00,,,0.00,Wunderground v.1.15,2013-04-24 04:38:00,
2013-04-24 00:44:00,42.0,38.7,30.09,NNE,20,1.0,1.0,88,0.00,,,0.00,Wunderground v.1.15,2013-04-24 04:44:00,
2013-04-24 00:49:00,41.9,38.6,30.08,North,350,1.0,4.0,88,0.00,,,0.00,Wunderground v.1.15,2013-04-24 04:49:00,
2013-04-24 00:54:00,41.9,38.6,30.08,North,10,1.0,1.0,88,0.00,,,0.00,Wunderground v.1.15,2013-04-24 04:54:00,
2013-04-24 00:59:00,41.8,38.8,30.08,WNW,292,1.0,3.0,89,0.00,,,0.00,Wunderground v.1.15,2013-04-24 04:59:00,
2013-04-24 01:04:00,41.8,38.5,30.07,NNE,20,1.0,1.0,88,0.00,,,0.00,Wunderground v.1.15,2013-04-24 05:04:00,
2013-04-24 01:09:00,41.7,38.4,30.07,North,11,1.0,4.0,88,0.00,,,0.00,Wunderground v.1.15,2013-04-24 05:09:00,
2013-04-24 01:15:00,41.6,38.6,30.06,NNW,336,2.0,5.0,89,0.00,,,0.00,Wunderground v.1.15,2013-04-24 05:15:00,
2013-04-24 01:20:00,41.6,38.6,30.06,North,5,2.0,3.0,89,0.00,,,0.00,Wunderground v.1.15,2013-04-24 05:20:00,
2013-04-24 01:25:00,41.6,38.6,30.06,North,349,2.0,3.0,89,0.00,,,0.00,Wunderground v.1.15,2013-04-24 05:25:00,
2013-04-24 01:30:00,41.6,38.6,30.06,North,355,1.0,1.0,89,0.00,,,0.00,Wunderground v.1.15,2013-04-24 05:30:00,
2013-04-24 01:35:00,41.5,38.5,30.05,North,5,1.0,2.0,89,0.00,,,0.00,Wunderground v.1.15,2013-04-24 05:35:00,
2013-04-24 01:40:00,41.5,38.5,30.05,NNW,337,1.0,1.0,89,0.00,,,0.00,Wunderground v.1.15,2013-04-24 05:40:00,
2013-04-24 01:45:00,41.5,38.5,30.05,NW,320,1.0,3.0,89,0.00,,,0.00,Wunderground v.1.15,2013-04-24 05:45:00,
2013-04-24 01:50:00,41.4,38.4,30.05,North,355,1.0,2.0,89,0.00,,,0.00,Wunderground v.1.15,2013-04-24 05:50:00,
2013-04-24 01:55:00,41.4,38.4,30.05,North,350,1.0,4.0,89,0.00,,,0.00,Wunderground v.1.15,2013-04-24 05:55:00,
2013-04-24 02:00:00,41.3,38.6,30.05,NNE,19,2.0,2.0,90,0.00,,,0.00,Wunderground v.1.15,2013-04-24 06:00:00,
2013-04-24 02:06:00,41.2,38.2,30.04,NNW,333,2.0,3.0,89,0.00,,,0.00,Wunderground v.1.15,2013-04-24 06:06:00,
2013-04-24 02:11:00,41.0,38.0,30.03,NNE,17,1.0,1.0,89,0.00,,,0.00,Wunderground v.1.15,2013-04-24 06:11:00,
2013-04-24 02:16:00,40.8,38.1,30.04,NNW,348,0.0,1.0,90,0.00,,,0.00,Wunderground v.1.15,2013-04-24 06:16:00,
2013-04-24 02:21:00,40.7,38.0,30.04,NNW,334,1.0,1.0,90,0.00,,,0.00,Wunderground v.1.15,2013-04-24 06:21:00,
2013-04-24 02:26:00,40.7,38.3,30.04,West,273,1.0,3.0,91,0.00,,,0.00,Wunderground v.1.15,2013-04-24 06:26:00,
2013-04-24 02:32:00,40.6,38.2,30.04,North,349,1.0,1.0,91,0.00,,,0.00,Wunderground v.1.15,2013-04-24 06:32:00,
2013-04-24 02:38:00,40.6,38.2,30.04,North,349,0.0,1.0,91,0.00,,,0.00,Wunderground v.1.15,2013-04-24 06:38:00,
2013-04-24 02:44:00,40.5,38.1,30.05,WNW,290,0.0,0.0,91,0.00,,,0.00,Wunderground v.1.15,2013-04-24 06:44:00,
2013-04-24 02:49:00,40.4,38.0,30.04,North,5,0.0,0.0,91,0.00,,,0.00,Wunderground v.1.15,2013-04-24 06:49:00,
2013-04-24 02:54:00,40.2,37.8,30.04,NNW,333,0.0,2.0,91,0.00,,,0.00,Wunderground v.1.15,2013-04-24 06:54:00,
2013-04-24 02:59:00,40.0,37.6,30.04,NNW,327,0.0,2.0,91,0.00,,,0.00,Wunderground v.1.15,2013-04-24 06:59:00,
2013-04-24 03:04:00,39.9,38.0,30.04,NNW,338,0.0,4.0,93,0.00,,,0.00,Wunderground v.1.15,2013-04-24 07:04:00,
2013-04-24 03:09:00,39.8,37.7,30.04,NNE,30,1.0,4.0,92,0.00,,,0.00,Wunderground v.1.15,2013-04-24 07:09:00,
2013-04-24 03:15:00,39.8,37.9,30.04,NNW,341,1.0,3.0,93,0.00,,,0.00,Wunderground v.1.15,2013-04-24 07:15:00,
2013-04-24 03:20:00,40.0,38.4,30.04,NE,37,2.0,2.0,94,0.00,,,0.00,Wunderground v.1.15,2013-04-24 07:20:00,
2013-04-24 03:25:00,39.9,38.0,30.04,NE,53,1.0,2.0,93,0.00,,,0.00,Wunderground v.1.15,2013-04-24 07:25:00,
2013-04-24 03:31:00,40.0,38.4,30.04,NW,325,0.0,1.0,94,0.00,,,0.00,Wunderground v.1.15,2013-04-24 07:31:00,
2013-04-24 03:36:00,40.0,38.4,30.03,North,355,0.0,1.0,94,0.00,,,0.00,Wunderground v.1.15,2013-04-24 07:36:00,
2013-04-24 03:41:00,40.0,38.4,30.03,NNW,345,0.0,0.0,94,0.00,,,0.00,Wunderground v.1.15,2013-04-24 07:41:00,
2013-04-24 03:46:00,40.0,38.4,30.03,NNW,345,0.0,0.0,94,0.00,,,0.00,Wunderground v.1.15,2013-04-24 07:46:00,
2013-04-24 03:52:00,39.9,38.3,30.03,NNE,19,0.0,1.0,94,0.00,,,0.00,Wunderground v.1.15,2013-04-24 07:52:00,
2013-04-24 03:57:00,39.7,37.8,30.03,NW,315,0.0,1.0,93,0.00,,,0.00,Wunderground v.1.15,2013-04-24 07:57:00,
2013-04-24 04:04:00,39.4,37.5,30.02,North,5,0.0,0.0,93,0.00,,,0.00,Wunderground v.1.15,2013-04-24 08:04:00,
2013-04-24 04:09:00,39.2,37.3,30.02,NE,44,0.0,0.0,93,0.00,,,0.00,Wunderground v.1.15,2013-04-24 08:09:00,
2013-04-24 04:14:00,39.0,37.4,30.02,NNE,32,0.0,2.0,94,0.00,,,0.00,Wunderground v.1.15,2013-04-24 08:14:00,
2013-04-24 04:19:00,39.0,37.4,30.02,NNW,333,0.0,2.0,94,0.00,,,0.00,Wunderground v.1.15,2013-04-24 08:19:00,
2013-04-24 04:25:00,39.0,37.7,30.02,NNW,348,0.0,4.0,95,0.00,,,0.00,Wunderground v.1.15,2013-04-24 08:25:00,
2013-04-24 04:31:00,39.0,37.7,30.02,North,355,0.0,0.0,95,0.00,,,0.00,Wunderground v.1.15,2013-04-24 08:31:00,
2013-04-24 04:36:00,39.0,37.7,30.02,NNE,15,0.0,1.0,95,0.00,,,0.00,Wunderground v.1.15,2013-04-24 08:36:00,
2013-04-24 04:42:00,39.0,38.0,30.02,North,5,0.0,0.0,96,0.00,,,0.00,Wunderground v.1.15,2013-04-24 08:42:00,
2013-04-24 04:47:00,39.0,37.7,30.02,North,5,0.0,0.0,95,0.00,,,0.00,Wunderground v.1.15,2013-04-24 08:47:00,
2013-04-24 04:52:00,38.8,37.5,30.02,North,5,0.0,0.0,95,0.00,,,0.00,Wunderground v.1.15,2013-04-24 08:52:00,
2013-04-24 04:58:00,38.7,37.4,30.02,North,355,0.0,3.0,95,0.00,,,0.00,Wunderground v.1.15,2013-04-24 08:58:00,
2013-04-24 05:03:00,38.6,37.3,30.02,NNW,342,0.0,0.0,95,0.00,,,0.00,Wunderground v.1.15,2013-04-24 09:03:00,
2013-04-24 05:08:00,38.4,37.1,30.03,NNW,336,0.0,0.0,95,0.00,,,0.00,Wunderground v.1.15,2013-04-24 09:08:00,
2013-04-24 05:13:00,38.2,36.9,30.03,NW,323,0.0,1.0,95,0.00,,,0.00,Wunderground v.1.15,2013-04-24 09:13:00,
2013-04-24 05:18:00,38.2,37.2,30.02,North,9,0.0,1.0,96,0.00,,,0.00,Wunderground v.1.15,2013-04-24 09:18:00,
2013-04-24 05:23:00,38.2,37.2,30.03,NE,53,0.0,1.0,96,0.00,,,0.00,Wunderground v.1.15,2013-04-24 09:23:00,
2013-04-24 05:28:00,38.1,37.1,30.03,WNW,286,0.0,1.0,96,0.00,,,0.00,Wunderground v.1.15,2013-04-24 09:28:00,
2013-04-24 05:34:00,38.0,36.7,30.03,WNW,286,0.0,0.0,95,0.00,,,0.00,Wunderground v.1.15,2013-04-24 09:34:00,
2013-04-24 05:39:00,37.9,36.9,30.03,WNW,286,0.0,0.0,96,0.00,,,0.00,Wunderground v.1.15,2013-04-24 09:39:00,
2013-04-24 05:44:00,37.8,36.8,30.03,NNW,344,0.0,0.0,96,0.00,,,0.00,Wunderground v.1.15,2013-04-24 09:44:00,
2013-04-24 05:50:00,37.9,37.1,30.04,NW,315,1.0,1.0,97,0.00,,,0.00,Wunderground v.1.15,2013-04-24 09:50:00,
2013-04-24 05:56:00,38.2,37.4,30.03,NNW,348,0.0,2.0,97,0.00,,,0.00,Wunderground v.1.15,2013-04-24 09:56:00,
2013-04-24 06:02:00,38.4,37.6,30.04,NNW,331,1.0,1.0,97,0.00,,,0.00,Wunderground v.1.15,2013-04-24 10:02:00,
2013-04-24 06:07:00,38.2,37.2,30.04,North,355,0.0,1.0,96,0.00,,,0.00,Wunderground v.1.15,2013-04-24 10:07:00,
2013-04-24 06:14:00,38.1,37.1,30.03,NNW,340,0.0,1.0,96,0.00,,,0.00,Wunderground v.1.15,2013-04-24 10:14:00,
2013-04-24 06:19:00,38.2,37.2,30.04,West,273,0.0,1.0,96,0.00,,,0.00,Wunderground v.1.15,2013-04-24 10:19:00,
2013-04-24 06:24:00,38.3,37.5,30.04,North,360,1.0,3.0,97,0.00,,,0.00,Wunderground v.1.15,2013-04-24 10:24:00,
2013-04-24 06:30:00,38.5,37.7,30.04,WNW,302,1.0,3.0,97,0.00,,,0.00,Wunderground v.1.15,2013-04-24 10:30:00,
2013-04-24 06:35:00,38.9,38.1,30.05,NW,306,2.0,5.0,97,0.00,,,0.00,Wunderground v.1.15,2013-04-24 10:35:00,
2013-04-24 06:41:00,39.2,38.4,30.05,NW,317,2.0,2.0,97,0.00,,,0.00,Wunderground v.1.15,2013-04-24 10:41:00,
2013-04-24 06:46:00,39.5,38.7,30.05,NW,320,1.0,2.0,97,0.00,,,0.00,Wunderground v.1.15,2013-04-24 10:46:00,
2013-04-24 06:52:00,39.8,38.8,30.05,NE,53,1.0,1.0,96,0.00,,,0.00,Wunderground v.1.15,2013-04-24 10:52:00,
2013-04-24 06:57:00,40.0,39.0,30.04,NW,315,0.0,1.0,96,0.00,,,0.00,Wunderground v.1.15,2013-04-24 10:57:00,
2013-04-24 07:03:00,40.4,39.1,30.05,NW,321,0.0,0.0,95,0.00,,,0.00,Wunderground v.1.15,2013-04-24 11:03:00,
2013-04-24 07:08:00,40.7,39.4,30.05,WNW,291,0.0,1.0,95,0.00,,,0.00,Wunderground v.1.15,2013-04-24 11:08:00,
2013-04-24 07:14:00,41.1,39.5,30.05,NE,44,0.0,0.0,94,0.00,,,0.00,Wunderground v.1.15,2013-04-24 11:14:00,
2013-04-24 07:20:00,41.5,39.6,30.05,North,5,0.0,0.0,93,0.00,,,0.00,Wunderground v.1.15,2013-04-24 11:20:00,
2013-04-24 07:25:00,42.0,40.1,30.05,NNE,20,0.0,2.0,93,0.00,,,0.00,Wunderground v.1.15,2013-04-24 11:25:00,
2013-04-24 07:30:00,42.6,40.2,30.05,NE,39,1.0,1.0,91,0.00,,,0.00,Wunderground v.1.15,2013-04-24 11:30:00,
2013-04-24 07:36:00,43.0,40.3,30.05,NNW,345,1.0,4.0,90,0.00,,,0.00,Wunderground v.1.15,2013-04-24 11:36:00,
2013-04-24 07:41:00,43.4,40.4,30.05,WNW,291,1.0,1.0,89,0.00,,,0.00,Wunderground v.1.15,2013-04-24 11:41:00,
2013-04-24 07:46:00,43.9,40.6,30.04,NNE,19,1.0,1.0,88,0.00,,,0.00,Wunderground v.1.15,2013-04-24 11:46:00,
2013-04-24 07:51:00,44.3,40.7,30.04,NNE,22,1.0,1.0,87,0.00,,,0.00,Wunderground v.1.15,2013-04-24 11:51:00,
2013-04-24 07:57:00,44.6,40.7,30.04,NNW,348,1.0,4.0,86,0.00,,,0.00,Wunderground v.1.15,2013-04-24 11:57:00,
2013-04-24 08:02:00,45.1,40.9,30.04,WNW,298,1.0,5.0,85,0.00,,,0.00,Wunderground v.1.15,2013-04-24 12:02:00,
2013-04-24 08:08:00,45.7,41.1,30.04,WNW,289,2.0,5.0,84,0.00,,,0.00,Wunderground v.1.15,2013-04-24 12:08:00,
2013-04-24 08:13:00,46.1,41.5,30.04,West,275,2.0,8.0,84,0.00,,,0.00,Wunderground v.1.15,2013-04-24 12:13:00,
2013-04-24 08:18:00,46.7,41.8,30.04,NW,323,2.0,8.0,83,0.00,,,0.00,Wunderground v.1.15,2013-04-24 12:18:00,
2013-04-24 08:23:00,47.2,42.0,30.03,WNW,299,1.0,4.0,82,0.00,,,0.00,Wunderground v.1.15,2013-04-24 12:23:00,
2013-04-24 08:28:00,47.7,41.8,30.03,NW,309,1.0,4.0,80,0.00,,,0.00,Wunderground v.1.15,2013-04-24 12:28:00,
2013-04-24 08:33:00,48.2,42.3,30.03,WNW,302,1.0,1.0,80,0.00,,,0.00,Wunderground v.1.15,2013-04-24 12:33:00,
2013-04-24 08:39:00,48.7,42.5,30.03,NW,313,1.0,3.0,79,0.00,,,0.00,Wunderground v.1.15,2013-04-24 12:39:00,
2013-04-24 08:44:00,49.0,42.4,30.03,West,281,1.0,2.0,78,0.00,,,0.00,Wunderground v.1.15,2013-04-24 12:44:00,
2013-04-24 08:50:00,49.4,42.5,30.03,West,269,1.0,1.0,77,0.00,,,0.00,Wunderground v.1.15,2013-04-24 12:50:00,
2013-04-24 08:55:00,49.8,42.9,30.03,WNW,302,1.0,4.0,77,0.00,,,0.00,Wunderground v.1.15,2013-04-24 12:55:00,
2013-04-24 09:00:00,50.2,42.9,30.03,WSW,246,1.0,1.0,76,0.00,,,0.00,Wunderground v.1.15,2013-04-24 13:00:00,
2013-04-24 09:06:00,50.8,43.5,30.02,WNW,288,0.0,1.0,76,0.00,,,0.00,Wunderground v.1.15,2013-04-24 13:06:00,
2013-04-24 09:12:00,51.6,44.3,30.02,NW,323,1.0,5.0,76,0.00,,,0.00,Wunderground v.1.15,2013-04-24 13:12:00,
2013-04-24 09:17:00,52.3,44.6,30.02,West,259,3.0,8.0,75,0.00,,,0.00,Wunderground v.1.15,2013-04-24 13:17:00,
2013-04-24 09:22:00,52.8,44.4,30.02,SW,236,5.0,6.0,73,0.00,,,0.00,Wunderground v.1.15,2013-04-24 13:22:00,
2013-04-24 09:28:00,53.3,44.9,30.02,NW,313,6.0,7.0,73,0.00,,,0.00,Wunderground v.1.15,2013-04-24 13:28:00,
2013-04-24 09:33:00,53.6,44.8,30.02,SW,219,5.0,5.0,72,0.00,,,0.00,Wunderground v.1.15,2013-04-24 13:33:00,
2013-04-24 09:38:00,54.0,44.8,30.02,WNW,286,3.0,5.0,71,0.00,,,0.00,Wunderground v.1.15,2013-04-24 13:38:00,
2013-04-24 09:43:00,54.4,45.2,30.02,West,276,4.0,9.0,71,0.00,,,0.00,Wunderground v.1.15,2013-04-24 13:43:00,
2013-04-24 09:49:00,54.9,46.0,30.02,SW,226,3.0,9.0,72,0.00,,,0.00,Wunderground v.1.15,2013-04-24 13:49:00,
2013-04-24 09:54:00,55.7,45.7,30.01,WSW,246,1.0,4.0,69,0.00,,,0.00,Wunderground v.1.15,2013-04-24 13:54:00,
2013-04-24 09:59:00,56.1,45.7,30.01,WNW,291,2.0,8.0,68,0.00,,,0.00,Wunderground v.1.15,2013-04-24 13:59:00,
2013-04-24 10:04:00,56.3,45.5,30.01,WNW,287,4.0,9.0,67,0.00,,,0.00,Wunderground v.1.15,2013-04-24 14:04:00,
2013-04-24 10:10:00,56.6,46.2,30.01,WSW,252,4.0,7.0,68,0.00,,,0.00,Wunderground v.1.15,2013-04-24 14:10:00,
2013-04-24 10:16:00,56.8,46.0,30.01,WNW,288,3.0,7.0,67,0.00,,,0.00,Wunderground v.1.15,2013-04-24 14:16:00,
2013-04-24 10:21:00,57.2,45.5,30.01,WNW,296,3.0,5.0,65,0.00,,,0.00,Wunderground v.1.15,2013-04-24 14:21:00,
2013-04-24 10:26:00,57.5,45.4,30.00,SW,220,3.0,5.0,64,0.00,,,0.00,Wunderground v.1.15,2013-04-24 14:26:00,
2013-04-24 10:31:00,57.6,45.5,30.00,WNW,292,4.0,4.0,64,0.00,,,0.00,Wunderground v.1.15,2013-04-24 14:31:00,
2013-04-24 10:36:00,57.9,45.8,30.00,WNW,303,4.0,8.0,64,0.00,,,0.00,Wunderground v.1.15,2013-04-24 14:36:00,
2013-04-24 10:41:00,58.1,45.6,30.00,West,271,3.0,9.0,63,0.00,,,0.00,Wunderground v.1.15,2013-04-24 14:41:00,
2013-04-24 10:46:00,58.4,45.0,30.00,WSW,247,4.0,9.0,61,0.00,,,0.00,Wunderground v.1.15,2013-04-24 14:46:00,
2013-04-24 10:51:00,58.6,45.2,30.00,SSW,205,5.0,5.0,61,0.00,,,0.00,Wunderground v.1.15,2013-04-24 14:51:00,
2013-04-24 10:56:00,59.0,46.0,30.00,SSW,202,3.0,7.0,62,0.00,,,0.00,Wunderground v.1.15,2013-04-24 14:56:00,
2013-04-24 11:02:00,59.3,45.8,29.99,South,188,3.0,3.0,61,0.00,,,0.00,Wunderground v.1.15,2013-04-24 15:02:00,
2013-04-24 11:10:00,59.0,46.0,30.00,SW,224,3.0,5.0,62,0.00,,,0.00,Wunderground v.1.15,2013-04-24 15:10:00,
2013-04-24 11:16:00,59.2,46.2,30.00,South,191,3.0,7.0,62,0.00,,,0.00,Wunderground v.1.15,2013-04-24 15:16:00,
2013-04-24 11:21:00,59.2,45.8,29.99,SSW,211,4.0,6.0,61,0.00,,,0.00,Wunderground v.1.15,2013-04-24 15:21:00,
2013-04-24 11:26:00,59.5,46.0,29.99,SW,216,4.0,6.0,61,0.00,,,0.00,Wunderground v.1.15,2013-04-24 15:26:00,
2013-04-24 11:31:00,59.7,46.7,29.99,South,190,4.0,4.0,62,0.00,,,0.00,Wunderground v.1.15,2013-04-24 15:31:00,
2013-04-24 11:36:00,59.7,45.8,29.98,SSW,199,4.0,5.0,60,0.00,,,0.00,Wunderground v.1.15,2013-04-24 15:36:00,
2013-04-24 11:41:00,59.9,46.4,29.98,SW,233,4.0,6.0,61,0.00,,,0.00,Wunderground v.1.15,2013-04-24 15:41:00,
2013-04-24 11:47:00,60.0,45.6,29.98,SW,221,5.0,6.0,59,0.00,,,0.00,Wunderground v.1.15,2013-04-24 15:47:00,
2013-04-24 11:52:00,60.3,47.2,29.97,SW,214,4.0,5.0,62,0.00,,,0.00,Wunderground v.1.15,2013-04-24 15:52:00,
2013-04-24 11:57:00,60.7,46.7,29.97,SE,145,4.0,6.0,60,0.00,,,0.00,Wunderground v.1.15,2013-04-24 15:57:00,
2013-04-24 12:03:00,61.3,46.8,29.97,SSW,203,4.0,4.0,59,0.00,,,0.00,Wunderground v.1.15,2013-04-24 16:03:00,
2013-04-24 12:08:00,61.7,48.5,29.96,South,179,4.0,5.0,62,0.00,,,0.00,Wunderground v.1.15,2013-04-24 16:08:00,
2013-04-24 12:13:00,62.2,47.7,29.96,SSW,201,3.0,6.0,59,0.00,,,0.00,Wunderground v.1.15,2013-04-24 16:13:00,
2013-04-24 12:18:00,62.6,48.1,29.95,South,172,2.0,6.0,59,0.00,,,0.00,Wunderground v.1.15,2013-04-24 16:18:00,
2013-04-24 12:24:00,62.8,48.3,29.95,SSW,205,3.0,5.0,59,0.00,,,0.00,Wunderground v.1.15,2013-04-24 16:24:00,
2013-04-24 12:29:00,63.2,47.7,29.94,SW,224,3.0,8.0,57,0.00,,,0.00,Wunderground v.1.15,2013-04-24 16:29:00,
2013-04-24 12:35:00,63.7,48.6,29.94,South,178,4.0,8.0,58,0.00,,,0.00,Wunderground v.1.15,2013-04-24 16:35:00,
2013-04-24 12:40:00,63.8,47.8,29.94,SSW,202,5.0,5.0,56,0.00,,,0.00,Wunderground v.1.15,2013-04-24 16:40:00,
2013-04-24 12:45:00,64.0,48.0,29.94,SW,219,5.0,10.0,56,0.00,,,0.00,Wunderground v.1.15,2013-04-24 16:45:00,
2013-04-24 12:50:00,64.3,48.7,29.93,SW,224,4.0,6.0,57,0.00,,,0.00,Wunderground v.1.15,2013-04-24 16:50:00,
2013-04-24 12:55:00,64.4,47.9,29.93,SW,224,4.0,8.0,55,0.00,,,0.00,Wunderground v.1.15,2013-04-24 16:55:00,
2013-04-24 13:00:00,64.5,48.4,29.92,SSW,201,4.0,4.0,56,0.00,,,0.00,Wunderground v.1.15,2013-04-24 17:00:00,
2013-04-24 13:06:00,64.9,48.8,29.92,SW,236,4.0,7.0,56,0.00,,,0.00,Wunderground v.1.15,2013-04-24 17:06:00,
2013-04-24 13:12:00,65.5,48.4,29.92,SSW,194,5.0,9.0,54,0.00,,,0.00,Wunderground v.1.15,2013-04-24 17:12:00,
2013-04-24 13:17:00,65.8,48.7,29.92,SSW,213,6.0,9.0,54,0.00,,,0.00,Wunderground v.1.15,2013-04-24 17:17:00,
2013-04-24 13:22:00,65.9,48.8,29.91,WNW,283,6.0,6.0,54,0.00,,,0.00,Wunderground v.1.15,2013-04-24 17:22:00,
2013-04-24 13:28:00,66.4,50.2,29.91,SW,227,5.0,6.0,56,0.00,,,0.00,Wunderground v.1.15,2013-04-24 17:28:00,
2013-04-24 13:33:00,67.0,50.3,29.91,SSW,211,4.0,6.0,55,0.00,,,0.00,Wunderground v.1.15,2013-04-24 17:33:00,
2013-04-24 13:38:00,67.3,49.6,29.90,SW,232,5.0,8.0,53,0.00,,,0.00,Wunderground v.1.15,2013-04-24 17:38:00,
2013-04-24 13:43:00,67.2,49.5,29.89,SSW,195,6.0,6.0,53,0.00,,,0.00,Wunderground v.1.15,2013-04-24 17:43:00,
2013-04-24 13:49:00,67.6,50.9,29.89,SSE,167,4.0,6.0,55,0.00,,,0.00,Wunderground v.1.15,2013-04-24 17:49:00,
2013-04-24 13:54:00,68.0,49.7,29.90,West,269,4.0,9.0,52,0.00,,,0.00,Wunderground v.1.15,2013-04-24 17:54:00,
2013-04-24 14:00:00,68.3,50.5,29.90,SW,218,6.0,6.0,53,0.00,,,0.00,Wunderground v.1.15,2013-04-24 18:00:00,
2013-04-24 14:06:00,68.6,49.7,29.90,West,267,6.0,9.0,51,0.00,,,0.00,Wunderground v.1.15,2013-04-24 18:06:00,
2013-04-24 14:11:00,68.6,49.2,29.90,WSW,252,6.0,10.0,50,0.00,,,0.00,Wunderground v.1.15,2013-04-24 18:11:00,
2013-04-24 14:16:00,68.6,50.3,29.90,West,281,6.0,10.0,52,0.00,,,0.00,Wunderground v.1.15,2013-04-24 18:16:00,
2013-04-24 14:22:00,68.9,50.0,29.89,SSW,208,6.0,10.0,51,0.00,,,0.00,Wunderground v.1.15,2013-04-24 18:22:00,
2013-04-24 14:27:00,68.8,51.5,29.89,South,188,7.0,10.0,54,0.00,,,0.00,Wunderground v.1.15,2013-04-24 18:27:00,
2013-04-24 14:33:00,68.2,49.9,29.89,South,184,6.0,7.0,52,0.00,,,0.00,Wunderground v.1.15,2013-04-24 18:33:00,
2013-04-24 14:38:00,67.7,49.9,29.89,South,175,5.0,7.0,53,0.00,,,0.00,Wunderground v.1.15,2013-04-24 18:38:00,
2013-04-24 14:43:00,67.6,49.9,29.88,SW,220,4.0,9.0,53,0.00,,,0.00,Wunderground v.1.15,2013-04-24 18:43:00,
2013-04-24 14:48:00,67.4,50.2,29.88,SW,219,6.0,9.0,54,0.00,,,0.00,Wunderground v.1.15,2013-04-24 18:48:00,
2013-04-24 14:53:00,67.4,51.2,29.88,SSE,153,6.0,8.0,56,0.00,,,0.00,Wunderground v.1.15,2013-04-24 18:53:00,
2013-04-24 14:59:00,67.2,50.5,29.88,SE,130,5.0,8.0,55,0.00,,,0.00,Wunderground v.1.15,2013-04-24 18:59:00,
2013-04-24 15:04:00,66.9,50.2,29.87,ESE,120,4.0,7.0,55,0.00,,,0.00,Wunderground v.1.15,2013-04-24 19:04:00,
2013-04-24 15:09:00,66.6,50.4,29.87,SE,132,3.0,8.0,56,0.00,,,0.00,Wunderground v.1.15,2013-04-24 19:09:00,
2013-04-24 15:14:00,66.6,50.4,29.87,South,178,3.0,5.0,56,0.00,,,0.00,Wunderground v.1.15,2013-04-24 19:14:00,
2013-04-24 15:20:00,66.8,49.6,29.87,SW,225,5.0,5.0,54,0.00,,,0.00,Wunderground v.1.15,2013-04-24 19:20:00,
2013-04-24 15:25:00,66.8,50.1,29.86,South,169,5.0,11.0,55,0.00,,,0.00,Wunderground v.1.15,2013-04-24 19:25:00,
2013-04-24 15:30:00,66.5,50.8,29.86,South,188,5.0,5.0,57,0.00,,,0.00,Wunderground v.1.15,2013-04-24 19:30:00,
2013-04-24 15:35:00,66.8,50.6,29.85,South,180,4.0,5.0,56,0.00,,,0.00,Wunderground v.1.15,2013-04-24 19:35:00,
2013-04-24 15:40:00,67.1,50.9,29.85,South,190,4.0,6.0,56,0.00,,,0.00,Wunderground v.1.15,2013-04-24 19:40:00,
2013-04-24 15:45:00,67.1,51.4,29.85,South,178,4.0,7.0,57,0.00,,,0.00,Wunderground v.1.15,2013-04-24 19:45:00,
2013-04-24 15:50:00,66.8,51.1,29.85,South,175,4.0,4.0,57,0.00,,,0.00,Wunderground v.1.15,2013-04-24 19:50:00,
2013-04-24 15:56:00,66.4,51.2,29.85,SW,214,4.0,5.0,58,0.00,,,0.00,Wunderground v.1.15,2013-04-24 19:56:00,
2013-04-24 16:02:00,66.1,50.9,29.85,SSE,149,3.0,4.0,58,0.00,,,0.00,Wunderground v.1.15,2013-04-24 20:02:00,
2013-04-24 16:08:00,65.8,50.6,29.85,SSE,158,3.0,5.0,58,0.00,,,0.00,Wunderground v.1.15,2013-04-24 20:08:00,
2013-04-24 16:13:00,65.6,51.3,29.85,SE,146,3.0,5.0,60,0.00,,,0.00,Wunderground v.1.15,2013-04-24 20:13:00,
2013-04-24 16:18:00,65.3,51.5,29.85,SSE,150,3.0,5.0,61,0.00,,,0.00,Wunderground v.1.15,2013-04-24 20:18:00,
2013-04-24 16:23:00,64.9,51.1,29.85,SSW,207,3.0,6.0,61,0.00,,,0.00,Wunderground v.1.15,2013-04-24 20:23:00,
2013-04-24 16:29:00,64.9,50.7,29.85,South,188,4.0,8.0,60,0.00,,,0.00,Wunderground v.1.15,2013-04-24 20:29:00,
2013-04-24 16:34:00,64.5,51.2,29.85,SSE,155,4.0,6.0,62,0.00,,,0.00,Wunderground v.1.15,2013-04-24 20:34:00,
2013-04-24 16:40:00,64.3,51.4,29.85,South,181,3.0,3.0,63,0.00,,,0.00,Wunderground v.1.15,2013-04-24 20:40:00,
2013-04-24 16:45:00,64.0,51.1,29.85,ENE,71,3.0,4.0,63,0.00,,,0.00,Wunderground v.1.15,2013-04-24 20:45:00,
2013-04-24 16:50:00,63.7,51.3,29.85,SSE,149,3.0,3.0,64,0.00,,,0.00,Wunderground v.1.15,2013-04-24 20:50:00,
2013-04-24 16:55:00,63.6,50.8,29.85,SSE,149,3.0,6.0,63,0.00,,,0.00,Wunderground v.1.15,2013-04-24 20:55:00,
2013-04-24 17:00:00,63.4,51.0,29.85,South,175,3.0,4.0,64,0.00,,,0.00,Wunderground v.1.15,2013-04-24 21:00:00,
2013-04-24 17:06:00,63.1,50.7,29.85,ESE,115,4.0,10.0,64,0.00,,,0.00,Wunderground v.1.15,2013-04-24 21:06:00,
2013-04-24 17:11:00,62.9,51.0,29.85,South,182,4.0,4.0,65,0.00,,,0.00,Wunderground v.1.15,2013-04-24 21:11:00,
2013-04-24 17:17:00,62.4,50.9,29.85,ESE,108,3.0,7.0,66,0.00,,,0.00,Wunderground v.1.15,2013-04-24 21:17:00,
2013-04-24 17:22:00,62.3,50.8,29.85,SSW,201,3.0,3.0,66,0.00,,,0.00,Wunderground v.1.15,2013-04-24 21:22:00,
2013-04-24 17:27:00,62.2,51.1,29.85,SSW,192,3.0,5.0,67,0.00,,,0.00,Wunderground v.1.15,2013-04-24 21:27:00,
2013-04-24 17:32:00,62.0,50.9,29.85,SSE,160,4.0,4.0,67,0.00,,,0.00,Wunderground v.1.15,2013-04-24 21:32:00,
2013-04-24 17:38:00,61.5,50.8,29.85,SSE,166,3.0,6.0,68,0.00,,,0.00,Wunderground v.1.15,2013-04-24 21:38:00,
2013-04-24 17:43:00,61.3,50.6,29.85,South,186,3.0,5.0,68,0.00,,,0.00,Wunderground v.1.15,2013-04-24 21:43:00,
2013-04-24 17:48:00,61.0,50.8,29.85,SE,126,3.0,5.0,69,0.00,,,0.00,Wunderground v.1.15,2013-04-24 21:48:00,
2013-04-24 17:53:00,60.8,50.6,29.84,SE,128,3.0,5.0,69,0.00,,,0.00,Wunderground v.1.15,2013-04-24 21:53:00,
2013-04-24 17:58:00,60.3,50.5,29.84,ESE,105,2.0,5.0,70,0.00,,,0.00,Wunderground v.1.15,2013-04-24 21:58:00,
2013-04-24 18:04:00,59.4,50.4,29.84,SE,146,3.0,4.0,72,0.00,,,0.00,Wunderground v.1.15,2013-04-24 22:04:00,
2013-04-24 18:09:00,58.6,50.0,29.83,SE,139,3.0,4.0,73,0.00,,,0.00,Wunderground v.1.15,2013-04-24 22:09:00,
2013-04-24 18:14:00,58.1,50.2,29.83,SSW,192,2.0,4.0,75,0.00,,,0.00,Wunderground v.1.15,2013-04-24 22:14:00,
2013-04-24 18:19:00,57.6,49.7,29.84,SSE,150,2.0,4.0,75,0.00,,,0.00,Wunderground v.1.15,2013-04-24 22:19:00,
2013-04-24 18:24:00,57.1,49.6,29.83,ESE,103,2.0,7.0,76,0.00,,,0.00,Wunderground v.1.15,2013-04-24 22:24:00,
2013-04-24 18:30:00,56.5,49.7,29.82,ENE,66,3.0,3.0,78,0.00,,,0.00,Wunderground v.1.15,2013-04-24 22:30:00,
2013-04-24 18:35:00,56.2,49.8,29.83,SE,145,2.0,4.0,79,0.00,,,0.00,Wunderground v.1.15,2013-04-24 22:35:00,
2013-04-24 18:40:00,55.8,49.4,29.82,ENE,75,2.0,3.0,79,0.00,,,0.00,Wunderground v.1.15,2013-04-24 22:40:00,
2013-04-24 18:45:00,55.3,49.2,29.82,SSE,150,2.0,3.0,80,0.00,,,0.00,Wunderground v.1.15,2013-04-24 22:45:00,
2013-04-24 18:50:00,55.0,49.3,29.82,South,175,2.0,2.0,81,0.00,,,0.00,Wunderground v.1.15,2013-04-24 22:50:00,
2013-04-24 18:55:00,54.7,49.0,29.82,SE,136,1.0,3.0,81,0.00,,,0.00,Wunderground v.1.15,2013-04-24 22:55:00,
2013-04-24 19:00:00,54.4,49.0,29.82,SSE,148,1.0,5.0,82,0.00,,,0.00,Wunderground v.1.15,2013-04-24 23:00:00,
2013-04-24 19:06:00,53.8,48.8,29.82,South,190,2.0,5.0,83,0.00,,,0.00,Wunderground v.1.15,2013-04-24 23:06:00,
2013-04-24 19:12:00,53.4,48.7,29.82,East,100,1.0,6.0,84,0.00,,,0.00,Wunderground v.1.15,2013-04-24 23:12:00,
2013-04-24 19:17:00,53.1,48.4,29.83,SSE,163,1.0,6.0,84,0.00,,,0.00,Wunderground v.1.15,2013-04-24 23:17:00,
2013-04-24 19:23:00,52.6,48.2,29.83,SSE,155,2.0,6.0,85,0.00,,,0.00,Wunderground v.1.15,2013-04-24 23:23:00,
2013-04-24 19:28:00,52.2,48.1,29.83,SSE,158,2.0,6.0,86,0.00,,,0.00,Wunderground v.1.15,2013-04-24 23:28:00,
2013-04-24 19:34:00,51.8,48.1,29.83,SSE,149,2.0,3.0,87,0.00,,,0.00,Wunderground v.1.15,2013-04-24 23:34:00,
2013-04-24 19:39:00,51.5,48.1,29.82,SSE,167,2.0,5.0,88,0.00,,,0.00,Wunderground v.1.15,2013-04-24 23:39:00,
2013-04-24 19:45:00,51.2,47.8,29.83,South,191,2.0,2.0,88,0.00,,,0.00,Wunderground v.1.15,2013-04-24 23:45:00,
2013-04-24 19:50:00,51.0,47.9,29.84,South,190,2.0,4.0,89,0.00,,,0.00,Wunderground v.1.15,2013-04-24 23:50:00,
2013-04-24 19:56:00,50.9,48.1,29.84,South,180,3.0,5.0,90,0.00,,,0.00,Wunderground v.1.15,2013-04-24 23:56:00,
2013-04-24 20:02:00,50.8,48.3,29.85,South,176,2.0,5.0,91,0.00,,,0.00,Wunderground v.1.15,2013-04-25 00:02:00,
2013-04-24 20:08:00,50.8,48.3,29.86,SSW,195,3.0,5.0,91,0.00,,,0.00,Wunderground v.1.15,2013-04-25 00:08:00,
2013-04-24 20:13:00,50.8,48.3,29.85,South,175,3.0,4.0,91,0.00,,,0.00,Wunderground v.1.15,2013-04-25 00:13:00,
2013-04-24 20:18:00,50.8,48.3,29.85,SSE,159,2.0,6.0,91,0.00,,,0.00,Wunderground v.1.15,2013-04-25 00:18:00,
2013-04-24 20:23:00,50.7,48.5,29.85,South,173,2.0,3.0,92,0.00,,,0.00,Wunderground v.1.15,2013-04-25 00:23:00,
2013-04-24 20:28:00,50.6,48.4,29.86,SSE,166,2.0,4.0,92,0.00,,,0.00,Wunderground v.1.15,2013-04-25 00:28:00,
2013-04-24 20:34:00,50.5,48.3,29.85,SSE,161,1.0,2.0,92,0.00,,,0.00,Wunderground v.1.15,2013-04-25 00:34:00,
2013-04-24 20:39:00,50.5,48.3,29.86,SSW,198,1.0,2.0,92,0.00,,,0.00,Wunderground v.1.15,2013-04-25 00:39:00,
2013-04-24 20:44:00,50.5,48.3,29.86,SSW,198,1.0,4.0,92,0.00,,,0.00,Wunderground v.1.15,2013-04-25 00:44:00,
2013-04-24 20:49:00,50.4,48.2,29.86,South,182,1.0,4.0,92,0.00,,,0.00,Wunderground v.1.15,2013-04-25 00:49:00,
2013-04-24 20:54:00,50.4,48.5,29.86,East,100,1.0,3.0,93,0.00,,,0.00,Wunderground v.1.15,2013-04-25 00:54:00,
2013-04-24 21:00:00,50.4,48.5,29.86,South,189,1.0,1.0,93,0.00,,,0.00,Wunderground v.1.15,2013-04-25 01:00:00,
2013-04-24 21:06:00,50.4,48.5,29.86,SSE,167,1.0,3.0,93,0.00,,,0.00,Wunderground v.1.15,2013-04-25 01:06:00,
2013-04-24 21:11:00,50.4,48.5,29.86,SSE,164,1.0,2.0,93,0.00,,,0.00,Wunderground v.1.15,2013-04-25 01:11:00,
2013-04-24 21:17:00,50.4,48.5,29.86,SSE,161,1.0,2.0,93,0.00,,,0.00,Wunderground v.1.15,2013-04-25 01:17:00,
2013-04-24 21:22:00,50.4,48.5,29.86,South,180,1.0,5.0,93,0.00,,,0.00,Wunderground v.1.15,2013-04-25 01:22:00,
2013-04-24 21:27:00,50.4,48.5,29.87,South,187,1.0,5.0,93,0.00,,,0.00,Wunderground v.1.15,2013-04-25 01:27:00,
2013-04-24 21:32:00,50.4,48.5,29.87,South,179,1.0,2.0,93,0.00,,,0.00,Wunderground v.1.15,2013-04-25 01:32:00,
2013-04-24 21:37:00,50.4,48.5,29.87,SSE,148,1.0,3.0,93,0.00,,,0.00,Wunderground v.1.15,2013-04-25 01:37:00,
2013-04-24 21:43:00,50.4,48.5,29.87,SSW,205,1.0,2.0,93,0.00,,,0.00,Wunderground v.1.15,2013-04-25 01:43:00,
2013-04-24 21:49:00,50.4,48.5,29.87,South,188,1.0,3.0,93,0.00,,,0.00,Wunderground v.1.15,2013-04-25 01:49:00,
2013-04-24 21:54:00,50.3,48.4,29.86,SSE,159,1.0,2.0,93,0.00,,,0.00,Wunderground v.1.15,2013-04-25 01:54:00,
2013-04-24 21:59:00,50.3,48.4,29.86,South,181,1.0,2.0,93,0.00,,,0.00,Wunderground v.1.15,2013-04-25 01:59:00,
2013-04-24 22:05:00,50.3,48.6,29.86,SSE,163,1.0,1.0,94,0.00,,,0.00,Wunderground v.1.15,2013-04-25 02:05:00,
2013-04-24 22:11:00,50.2,48.5,29.86,South,190,1.0,2.0,94,0.00,,,0.00,Wunderground v.1.15,2013-04-25 02:11:00,
2013-04-24 22:16:00,50.2,48.5,29.86,South,191,1.0,5.0,94,0.00,,,0.00,Wunderground v.1.15,2013-04-25 02:16:00,
2013-04-24 22:21:00,50.2,48.5,29.86,South,185,2.0,3.0,94,0.00,,,0.00,Wunderground v.1.15,2013-04-25 02:21:00,
2013-04-24 22:26:00,50.2,48.5,29.85,SSE,168,1.0,3.0,94,0.00,,,0.00,Wunderground v.1.15,2013-04-25 02:26:00,
2013-04-24 22:31:00,50.2,48.5,29.86,South,170,1.0,1.0,94,0.00,,,0.00,Wunderground v.1.15,2013-04-25 02:31:00,
2013-04-24 22:36:00,50.1,48.4,29.86,SSW,196,0.0,2.0,94,0.00,,,0.00,Wunderground v.1.15,2013-04-25 02:36:00,
2013-04-24 22:41:00,50.1,48.4,29.86,SSW,196,0.0,0.0,94,0.00,,,0.00,Wunderground v.1.15,2013-04-25 02:41:00,
2013-04-24 22:46:00,50.0,48.3,29.86,SSW,196,0.0,2.0,94,0.00,,,0.00,Wunderground v.1.15,2013-04-25 02:46:00,
2013-04-24 22:52:00,49.9,48.2,29.86,South,185,0.0,1.0,94,0.00,,,0.00,Wunderground v.1.15,2013-04-25 02:52:00,
2013-04-24 22:57:00,49.9,48.5,29.86,South,185,0.0,1.0,95,0.00,,,0.00,Wunderground v.1.15,2013-04-25 02:57:00,
2013-04-24 23:03:00,49.9,48.5,29.86,SSW,193,1.0,3.0,95,0.00,,,0.00,Wunderground v.1.15,2013-04-25 03:03:00,
2013-04-24 23:09:00,49.9,48.5,29.86,SW,215,1.0,3.0,95,0.00,,,0.00,Wunderground v.1.15,2013-04-25 03:09:00,
2013-04-24 23:16:00,49.8,48.4,29.85,SW,215,0.0,1.0,95,0.00,,,0.00,Wunderground v.1.15,2013-04-25 03:16:00,
2013-04-24 23:22:00,49.8,48.4,29.85,SSE,153,0.0,1.0,95,0.00,,,0.00,Wunderground v.1.15,2013-04-25 03:22:00,
2013-04-24 23:27:00,49.9,48.8,29.85,South,186,0.0,2.0,96,0.00,,,0.00,Wunderground v.1.15,2013-04-25 03:27:00,
2013-04-24 23:32:00,50.0,48.9,29.85,SSW,196,1.0,2.0,96,0.00,,,0.00,Wunderground v.1.15,2013-04-25 03:32:00,
2013-04-24 23:37:00,50.0,48.9,29.86,SSW,192,1.0,2.0,96,0.00,,,0.00,Wunderground v.1.15,2013-04-25 03:37:00,
2013-04-24 23:43:00,50.0,48.9,29.85,SE,130,1.0,1.0,96,0.00,,,0.00,Wunderground v.1.15,2013-04-25 03:43:00,
2013-04-24 23:48:00,50.1,49.0,29.85,SE,130,0.0,1.0,96,0.00,,,0.00,Wunderground v.1.15,2013-04-25 03:48:00,
2013-04-24 23:54:00,50.1,49.0,29.85,South,174,0.0,1.0,96,0.00,,,0.00,Wunderground v.1.15,2013-04-25 03:54:00,
2013-04-24 23:59:00,50.1,49.0,29.85,South,169,1.0,1.0,96,0.00,,,0.00,Wunderground v.1.15,2013-04-25 03:59:00,